Time;durP1;ratioP1;P1;durP2;ratioP2;P2;SDS_P1;SDS_P2;PMS_P1;PMS_P2;Temp;Humidity;BMP_temperature;BMP_pressure;BME280_temperature;BME280_humidity;BME280_pressure;Samples;Min_cycle;Max_cycle;Signal;HPM_P1;HPM_P2
2021/01/20 00:01:44;;;;;;;3.67;2.07;;;3.70;84.80;;;;;;5016083;28;20170;-78
2021/01/20 00:04:10;;;;;;;4.00;2.20;;;3.70;84.80;;;;;;5014311;28;20170;-78
2021/01/20 00:06:35;;;;;;;5.73;2.03;;;3.60;85.20;;;;;;5013751;28;20545;-78
2021/01/20 00:09:01;;;;;;;7.60;2.47;;;3.60;85.60;;;;;;5013843;28;20689;-78
2021/01/20 00:11:29;;;;;;;4.03;2.20;;;3.50;85.60;;;;;;5013436;28;20522;-78
2021/01/20 00:13:55;;;;;;;6.35;2.40;;;3.50;85.50;;;;;;5014010;28;20794;-78
2021/01/20 00:16:21;;;;;;;6.50;2.22;;;3.50;85.60;;;;;;5013656;28;20178;-78
2021/01/20 00:18:46;;;;;;;4.43;2.47;;;3.50;85.80;;;;;;5013388;28;20325;-77
2021/01/20 00:21:12;;;;;;;8.30;3.37;;;3.50;85.30;;;;;;5013349;28;20540;-77
2021/01/20 00:23:38;;;;;;;5.53;2.40;;;3.50;85.30;;;;;;5013407;28;20422;-78
2021/01/20 00:26:04;;;;;;;5.53;2.63;;;3.50;85.30;;;;;;5013262;28;20401;-77
2021/01/20 00:28:30;;;;;;;5.57;2.45;;;3.40;85.60;;;;;;5013059;28;20204;-77
2021/01/20 00:30:56;;;;;;;7.03;2.90;;;3.50;86.20;;;;;;5013179;28;20269;-77
2021/01/20 00:33:23;;;;;;;4.38;2.28;;;3.40;86.30;;;;;;5013165;28;20417;-77
2021/01/20 00:35:49;;;;;;;6.38;2.75;;;3.40;86.20;;;;;;5012975;28;20182;-77
2021/01/20 00:38:16;;;;;;;6.85;2.83;;;3.50;86.30;;;;;;5012047;28;20206;-77
2021/01/20 00:40:42;;;;;;;7.88;3.10;;;3.50;86.30;;;;;;5012752;28;20635;-77
2021/01/20 00:43:07;;;;;;;4.27;2.63;;;3.50;86.20;;;;;;5013091;28;20178;-77
2021/01/20 00:45:33;;;;;;;6.83;3.13;;;3.50;86.40;;;;;;5012704;28;20181;-78
2021/01/20 00:47:59;;;;;;;6.57;3.00;;;3.50;86.40;;;;;;5012687;28;20528;-77
2021/01/20 00:50:25;;;;;;;9.00;3.03;;;3.50;86.70;;;;;;5012838;28;20186;-78
2021/01/20 00:52:50;;;;;;;5.00;3.10;;;3.50;87.00;;;;;;5012674;28;20178;-77
2021/01/20 00:55:16;;;;;;;8.23;3.40;;;3.50;87.10;;;;;;5013773;28;20493;-77
2021/01/20 00:57:43;;;;;;;8.82;3.40;;;3.40;87.60;;;;;;5012562;28;20243;-77
2021/01/20 01:00:10;;;;;;;7.75;3.20;;;3.40;88.30;;;;;;5012399;28;20274;-77
2021/01/20 01:02:36;;;;;;;8.48;4.38;;;3.40;88.00;;;;;;5012452;28;20171;-77
2021/01/20 01:05:04;;;;;;;2.97;1.98;;;3.50;87.80;;;;;;5012415;28;20173;-77
2021/01/20 01:07:29;;;;;;;4.82;2.10;;;3.50;87.70;;;;;;5012625;28;20205;-78
2021/01/20 01:09:55;;;;;;;4.93;1.63;;;3.60;87.60;;;;;;5012464;28;20178;-77
2021/01/20 01:12:21;;;;;;;5.03;1.93;;;3.60;87.30;;;;;;5012325;28;20425;-78
2021/01/20 01:14:47;;;;;;;5.23;2.33;;;3.70;87.10;;;;;;5012467;28;20410;-77
2021/01/20 01:17:13;;;;;;;3.05;1.70;;;3.80;86.90;;;;;;5012193;28;20453;-78
2021/01/20 01:19:38;;;;;;;3.80;1.67;;;3.80;86.90;;;;;;5012136;28;20183;-77
2021/01/20 01:22:04;;;;;;;3.10;1.73;;;3.80;87.00;;;;;;5012150;28;20193;-78
2021/01/20 01:24:30;;;;;;;5.37;2.13;;;3.70;87.10;;;;;;5011964;28;20637;-77
2021/01/20 01:26:55;;;;;;;7.10;2.47;;;3.80;87.00;;;;;;5012177;28;20417;-77
2021/01/20 01:29:21;;;;;;;4.10;2.10;;;3.70;87.30;;;;;;5012002;28;20645;-77
2021/01/20 01:31:47;;;;;;;4.40;2.20;;;3.70;87.80;;;;;;5011786;28;20423;-77
2021/01/20 01:34:13;;;;;;;4.27;2.20;;;3.70;87.80;;;;;;5011879;28;20414;-78
2021/01/20 01:36:39;;;;;;;5.22;2.20;;;3.60;88.30;;;;;;5011929;28;20174;-77
2021/01/20 01:39:05;;;;;;;4.70;2.90;;;3.50;88.70;;;;;;5011375;28;20229;-77
2021/01/20 01:41:31;;;;;;;8.90;3.03;;;3.50;88.50;;;;;;5011496;28;20504;-77
2021/01/20 01:43:56;;;;;;;7.50;2.77;;;3.60;88.50;;;;;;5011580;28;20182;-78
2021/01/20 01:46:22;;;;;;;7.20;3.30;;;3.60;88.40;;;;;;5011729;28;20170;-77
2021/01/20 01:48:51;;;;;;;6.25;3.42;;;3.60;88.50;;;;;;5011466;28;20437;-78
2021/01/20 01:51:17;;;;;;;8.50;4.05;;;3.60;88.50;;;;;;5011463;28;20175;-77
2021/01/20 01:53:43;;;;;;;12.50;3.75;;;3.50;88.90;;;;;;5011353;28;20547;-77
2021/01/20 01:56:08;;;;;;;8.77;3.90;;;3.50;88.90;;;;;;5011661;28;20198;-77
2021/01/20 01:58:34;;;;;;;4.70;3.53;;;3.40;89.40;;;;;;5011277;28;20473;-77
2021/01/20 02:01:01;;;;;;;9.63;5.17;;;3.40;89.40;;;;;;5011417;28;20178;-77
2021/01/20 02:03:28;;;;;;;8.15;4.75;;;3.30;90.10;;;;;;5011131;28;20508;-77
2021/01/20 02:05:53;;;;;;;13.32;5.47;;;3.20;90.10;;;;;;5011261;28;20183;-77
2021/01/20 02:08:19;;;;;;;11.53;4.70;;;3.10;90.50;;;;;;5011010;28;20209;-77
2021/01/20 02:10:45;;;;;;;7.75;3.88;;;3.10;90.70;;;;;;5011371;28;20174;-77
2021/01/20 02:13:33;;;;;;;9.40;4.53;;;3.00;91.10;;;;;;5011132;28;20220;-77
2021/01/20 02:16:21;;;;;;;6.13;3.53;;;2.90;91.50;;;;;;5011256;28;20228;-77
2021/01/20 02:18:51;;;;;;;9.80;4.35;;;2.90;91.50;;;;;;5001013;28;20226;-77
2021/01/20 02:21:31;;;;;;;5.00;2.90;;;2.90;91.50;;;;;;5011069;28;20201;-77
2021/01/20 02:23:59;;;;;;;5.50;2.60;;;2.90;91.90;;;;;;4994962;28;20206;-77
2021/01/20 02:26:59;;;;;;;7.47;2.33;;;2.90;92.20;;;;;;5011206;28;20635;-77
2021/01/20 02:30:01;;;;;;;3.58;2.10;;;3.10;92.20;;;;;;5010999;28;20174;-77
2021/01/20 02:32:29;;;;;;;4.47;2.22;;;3.40;91.40;;;;;;5010813;28;20631;-77
2021/01/20 02:35:44;;;;;;;3.03;1.88;;;3.50;90.90;;;;;;5010962;28;20548;-77
2021/01/20 02:38:10;;;;;;;2.95;1.90;;;3.60;90.50;;;;;;5010772;28;20233;-77
2021/01/20 02:40:36;;;;;;;5.72;2.88;;;3.70;90.20;;;;;;5011050;28;20508;-78
2021/01/20 02:43:02;;;;;;;3.63;2.37;;;3.70;90.10;;;;;;5010599;28;20181;-77
2021/01/20 02:45:28;;;;;;;2.60;1.80;;;3.80;89.90;;;;;;5010769;28;20811;-78
2021/01/20 02:47:54;;;;;;;3.50;1.87;;;3.90;89.60;;;;;;5010686;28;20480;-77
2021/01/20 02:50:21;;;;;;;3.53;1.85;;;4.00;88.90;;;;;;5010797;28;20471;-77
2021/01/20 02:52:58;;;;;;;3.13;1.88;;;4.10;88.70;;;;;;5010734;28;20646;-77
2021/01/20 02:55:27;;;;;;;4.20;1.92;;;4.10;88.70;;;;;;5010836;28;20170;-77
2021/01/20 02:58:06;;;;;;;2.85;1.95;;;4.20;88.00;;;;;;5010617;28;20256;-78
2021/01/20 03:00:33;;;;;;;4.07;1.75;;;4.30;87.60;;;;;;5010703;28;20179;-77
2021/01/20 03:03:04;;;;;;;4.35;2.47;;;4.30;87.30;;;;;;5013760;28;20186;-77
2021/01/20 03:05:31;;;;;;;5.70;1.50;;;4.30;87.30;;;;;;5014955;28;20228;-78
2021/01/20 03:07:58;;;;;;;4.65;2.05;;;4.40;87.40;;;;;;5014614;28;20559;-77
2021/01/20 03:10:24;;;;;;;3.20;2.00;;;4.40;87.00;;;;;;5014600;28;20265;-77
2021/01/20 03:12:50;;;;;;;3.65;1.88;;;4.50;86.90;;;;;;5014266;28;20677;-77
2021/01/20 03:15:26;;;;;;;2.30;1.90;;;4.50;86.70;;;;;;5014423;28;20179;-77
2021/01/20 03:17:51;;;;;;;3.40;1.70;;;4.50;86.60;;;;;;5014224;28;20228;-77
2021/01/20 03:20:17;;;;;;;7.50;2.50;;;4.50;86.70;;;;;;5014601;28;20265;-77
2021/01/20 03:22:43;;;;;;;6.93;2.63;;;4.60;86.30;;;;;;5014415;28;20206;-77
2021/01/20 03:25:10;;;;;;;16.60;3.80;;;4.50;86.40;;;;;;5014425;28;20445;-77
2021/01/20 03:27:36;;;;;;;7.30;3.55;;;4.40;86.70;;;;;;5014083;28;20528;-77
2021/01/20 03:30:04;;;;;;;8.98;3.20;;;4.40;87.10;;;;;;5014300;28;20202;-77
2021/01/20 03:32:29;;;;;;;12.88;4.28;;;4.40;87.00;;;;;;5014217;28;20271;-77
2021/01/20 03:34:55;;;;;;;6.27;3.30;;;4.30;86.70;;;;;;5014247;28;20262;-77
2021/01/20 03:37:22;;;;;;;12.53;3.83;;;4.30;86.70;;;;;;5014064;28;20201;-77
2021/01/20 03:39:47;;;;;;;8.63;4.03;;;4.20;86.70;;;;;;5054577;23;20221;-85
2021/01/20 03:42:13;;;;;;;10.33;4.20;;;4.10;87.10;;;;;;5058045;28;20166;-84
2021/01/20 03:44:39;;;;;;;12.40;4.33;;;4.00;87.60;;;;;;5057804;28;20255;-85
2021/01/20 03:47:05;;;;;;;10.73;4.87;;;3.90;88.10;;;;;;5058249;28;20423;-84
2021/01/20 03:49:30;;;;;;;13.97;3.87;;;3.70;88.90;;;;;;5057203;28;20411;-84
2021/01/20 03:51:56;;;;;;;12.33;4.40;;;3.70;89.10;;;;;;5058160;28;20440;-85
2021/01/20 03:54:22;;;;;;;8.47;4.50;;;3.60;89.50;;;;;;5057657;28;20199;-84
2021/01/20 03:56:48;;;;;;;14.23;4.03;;;3.50;89.90;;;;;;5057626;28;20193;-84
2021/01/20 03:59:13;;;;;;;11.43;4.33;;;3.50;89.90;;;;;;5057914;28;20611;-85
2021/01/20 04:01:39;;;;;;;18.70;4.43;;;3.50;89.90;;;;;;5057880;28;20557;-84
2021/01/20 04:04:05;;;;;;;26.00;5.60;;;3.50;90.10;;;;;;5057578;28;20645;-84
2021/01/20 04:06:30;;;;;;;7.77;3.23;;;3.40;90.20;;;;;;5057832;28;20261;-84
2021/01/20 04:08:56;;;;;;;10.27;4.63;;;3.30;90.40;;;;;;5057560;28;20273;-84
2021/01/20 04:11:22;;;;;;;7.80;3.80;;;3.20;90.70;;;;;;5057555;28;20472;-84
2021/01/20 04:13:48;;;;;;;10.10;4.87;;;3.10;91.50;;;;;;5056488;28;20415;-84
2021/01/20 04:16:14;;;;;;;11.68;4.85;;;2.90;92.10;;;;;;5058138;28;20418;-84
2021/01/20 04:18:41;;;;;;;17.23;5.63;;;2.90;92.80;;;;;;5057308;28;20681;-84
2021/01/20 04:21:06;;;;;;;9.35;4.80;;;2.80;93.00;;;;;;5058668;28;20804;-84
2021/01/20 04:23:36;;;;;;;15.50;5.73;;;2.80;93.20;;;;;;5058212;28;20177;-84
2021/01/20 04:26:04;;;;;;;9.55;6.07;;;2.70;93.30;;;;;;5057726;28;20396;-84
2021/01/20 04:28:30;;;;;;;9.32;5.40;;;2.70;93.30;;;;;;5057297;28;20190;-84
2021/01/20 04:30:56;;;;;;;9.05;4.82;;;2.70;93.40;;;;;;5057322;28;20180;-84
2021/01/20 04:33:21;;;;;;;8.30;4.70;;;2.70;93.20;;;;;;5057645;28;20170;-84
2021/01/20 04:35:47;;;;;;;9.53;4.73;;;2.70;93.50;;;;;;5058752;28;20169;-84
2021/01/20 04:38:13;;;;;;;9.60;3.70;;;2.70;93.50;;;;;;5057182;28;20612;-84
2021/01/20 04:40:39;;;;;;;12.07;4.30;;;2.70;93.40;;;;;;5056925;28;20471;-84
2021/01/20 04:43:05;;;;;;;11.10;3.97;;;2.80;93.20;;;;;;5057434;28;20173;-84
2021/01/20 04:45:31;;;;;;;8.70;3.67;;;2.80;93.20;;;;;;5056489;28;20181;-85
2021/01/20 04:47:59;;;;;;;13.23;4.80;;;2.80;93.30;;;;;;5057018;28;20248;-85
2021/01/20 04:50:29;;;;;;;6.90;4.93;;;2.80;93.40;;;;;;5056571;28;20430;-85
2021/01/20 04:53:00;;;;;;;11.75;5.38;;;2.80;93.40;;;;;;5053612;28;20208;-86
2021/01/20 04:55:27;;;;;;;9.88;6.20;;;2.70;93.30;;;;;;5061055;28;20173;-85
2021/01/20 04:57:53;;;;;;;12.52;5.57;;;2.70;93.50;;;;;;5063140;28;20197;-85
2021/01/20 05:00:20;;;;;;;8.93;5.45;;;2.60;93.70;;;;;;5046867;28;20182;-85
2021/01/20 05:02:46;;;;;;;13.88;6.90;;;2.60;93.70;;;;;;5046800;28;20166;-84
2021/01/20 05:05:12;;;;;;;13.68;5.55;;;2.60;93.70;;;;;;5043990;28;20585;-84
2021/01/20 05:07:38;;;;;;;9.73;5.25;;;2.50;93.80;;;;;;5043125;28;20198;-84
2021/01/20 05:10:05;;;;;;;7.28;4.78;;;2.50;93.90;;;;;;5041018;28;20188;-84
2021/01/20 05:12:34;;;;;;;7.75;4.60;;;2.50;93.90;;;;;;5041724;28;20169;-82
2021/01/20 05:15:00;;;;;;;9.32;4.93;;;2.50;94.00;;;;;;5045826;28;20178;-84
2021/01/20 05:17:26;;;;;;;14.90;4.50;;;2.50;94.20;;;;;;5044691;28;20251;-85
2021/01/20 05:19:51;;;;;;;11.07;4.70;;;2.50;94.30;;;;;;5044118;28;20170;-83
2021/01/20 05:22:17;;;;;;;10.63;4.57;;;2.50;94.20;;;;;;5046183;28;20198;-82
2021/01/20 05:24:43;;;;;;;6.50;4.50;;;2.60;94.10;;;;;;5045352;28;20630;-83
2021/01/20 05:27:08;;;;;;;10.87;5.23;;;2.50;94.20;;;;;;5045327;28;20196;-85
2021/01/20 05:29:34;;;;;;;10.33;4.60;;;2.50;94.30;;;;;;5044944;28;20408;-84
2021/01/20 05:32:19;;;;;;;6.83;4.80;;;2.50;94.60;;;;;;5044766;28;20174;-85
2021/01/20 05:35:19;;;;;;;9.38;3.92;;;2.50;94.40;;;;;;5044299;28;20943;-83
2021/01/20 05:37:46;;;;;;;8.93;4.47;;;2.50;94.60;;;;;;5012695;28;20214;-83
2021/01/20 05:40:18;;;;;;;11.93;5.20;;;2.50;94.70;;;;;;5044911;28;20236;-84
2021/01/20 05:42:51;;;;;;;10.63;4.63;;;2.60;94.70;;;;;;5044799;28;20174;-84
2021/01/20 05:45:19;;;;;;;12.65;5.32;;;2.60;94.60;;;;;;5044892;28;20166;-84
2021/01/20 05:48:05;;;;;;;10.02;4.35;;;2.70;94.50;;;;;;5044777;28;20268;-83
2021/01/20 05:50:31;;;;;;;14.30;4.70;;;2.80;94.30;;;;;;5044132;28;20186;-83
2021/01/20 05:53:05;;;;;;;11.60;4.78;;;2.80;94.10;;;;;;5045152;28;20573;-84
2021/01/20 05:55:31;;;;;;;10.23;5.13;;;2.80;94.10;;;;;;5044480;28;20181;-83
2021/01/20 05:57:58;;;;;;;11.32;5.20;;;2.90;94.00;;;;;;5045506;28;20206;-84
2021/01/20 06:00:24;;;;;;;13.45;4.72;;;2.90;93.90;;;;;;5044127;28;20170;-84
2021/01/20 06:02:54;;;;;;;9.00;4.70;;;2.80;93.70;;;;;;5044935;28;20188;-85
2021/01/20 06:05:21;;;;;;;12.77;3.95;;;2.90;93.60;;;;;;5044507;28;20170;-85
2021/01/20 06:07:49;;;;;;;12.45;4.20;;;2.90;93.60;;;;;;5045795;28;20202;-86
2021/01/20 06:10:15;;;;;;;10.88;5.20;;;2.90;93.60;;;;;;5045085;28;20200;-85
2021/01/20 06:12:41;;;;;;;8.50;4.10;;;2.80;93.80;;;;;;5044113;28;20174;-84
2021/01/20 06:15:07;;;;;;;7.53;4.25;;;2.80;94.00;;;;;;5044290;28;20416;-84
2021/01/20 06:17:39;;;;;;;9.88;4.78;;;2.80;93.90;;;;;;5042636;28;20209;-85
2021/01/20 06:20:07;;;;;;;10.13;5.30;;;2.80;94.10;;;;;;5041806;28;20178;-85
2021/01/20 06:22:35;;;;;;;8.57;4.53;;;2.80;94.10;;;;;;5040653;28;20261;-83
2021/01/20 06:25:29;;;;;;;9.50;4.90;;;2.80;94.10;;;;;;5041766;28;20170;-83
2021/01/20 06:28:04;;;;;;;7.65;4.50;;;2.80;94.20;;;;;;5041562;28;20201;-83
2021/01/20 06:30:47;;;;;;;7.95;4.30;;;2.90;94.10;;;;;;5040964;28;20177;-83
2021/01/20 06:33:14;;;;;;;13.55;4.78;;;2.90;93.80;;;;;;5041484;28;20186;-83
2021/01/20 06:35:43;;;;;;;8.20;4.22;;;3.00;93.70;;;;;;5041401;28;20235;-84
2021/01/20 06:38:27;;;;;;;10.02;4.40;;;3.00;93.60;;;;;;5040304;28;20201;-84
2021/01/20 06:41:29;;;;;;;7.68;4.20;;;3.00;93.60;;;;;;5039896;28;20200;-84
2021/01/20 06:44:10;;;;;;;6.80;3.95;;;3.10;93.50;;;;;;5048584;28;20739;-84
2021/01/20 06:46:37;;;;;;;14.73;4.03;;;3.10;93.00;;;;;;5040571;28;20166;-85
2021/01/20 06:49:06;;;;;;;10.95;4.47;;;3.10;93.20;;;;;;5039987;28;20225;-85
2021/01/20 06:51:33;;;;;;;7.25;4.15;;;3.10;93.60;;;;;;5040783;28;20178;-85
2021/01/20 06:54:02;;;;;;;10.60;5.00;;;3.10;93.30;;;;;;5041829;28;20169;-84
2021/01/20 06:56:40;;;;;;;10.50;4.10;;;3.10;93.00;;;;;;5041830;28;20239;-85
2021/01/20 06:59:16;;;;;;;10.45;4.75;;;3.10;92.80;;;;;;5041532;28;20209;-85
2021/01/20 07:01:42;;;;;;;12.70;6.47;;;3.20;92.50;;;;;;5041142;28;20733;-86
2021/01/20 07:04:08;;;;;;;16.38;5.60;;;3.10;92.50;;;;;;5041080;28;20539;-86
2021/01/20 07:06:34;;;;;;;13.47;5.30;;;3.10;92.40;;;;;;5041409;28;20170;-86
2021/01/20 07:09:04;;;;;;;11.15;5.25;;;3.20;92.10;;;;;;5041192;28;20436;-85
2021/01/20 07:11:30;;;;;;;9.95;4.85;;;3.30;92.10;;;;;;5041971;28;20181;-85
2021/01/20 07:13:56;;;;;;;11.98;6.18;;;3.30;91.80;;;;;;5041289;28;20174;-85
2021/01/20 07:16:23;;;;;;;11.40;5.85;;;3.30;91.80;;;;;;5043097;28;20227;-85
2021/01/20 07:18:51;;;;;;;6.72;4.90;;;3.30;91.40;;;;;;5045183;28;20210;-85
2021/01/20 07:21:18;;;;;;;11.60;5.78;;;3.40;91.30;;;;;;5041988;28;20166;-85
2021/01/20 07:23:44;;;;;;;18.63;6.60;;;3.40;91.30;;;;;;5042334;28;20555;-86
2021/01/20 07:26:10;;;;;;;12.03;6.13;;;3.50;91.10;;;;;;5041583;28;20238;-85
2021/01/20 07:28:38;;;;;;;15.07;7.18;;;3.50;91.00;;;;;;5041701;28;20443;-85
2021/01/20 07:31:13;;;;;;;15.07;6.68;;;3.50;90.70;;;;;;5040607;28;20209;-84
2021/01/20 07:33:49;;;;;;;13.35;6.50;;;3.50;90.90;;;;;;5041261;28;20195;-87
2021/01/20 07:36:17;;;;;;;10.57;5.57;;;3.40;91.10;;;;;;5040589;28;20173;-85
2021/01/20 07:38:45;;;;;;;11.38;6.20;;;3.50;91.10;;;;;;5041180;28;20304;-85
2021/01/20 07:41:22;;;;;;;13.65;7.00;;;3.50;90.90;;;;;;5040439;28;20230;-85
2021/01/20 07:44:05;;;;;;;19.88;7.78;;;3.40;90.80;;;;;;5040925;28;20170;-86
2021/01/20 07:46:31;;;;;;;13.48;7.55;;;3.50;90.60;;;;;;5041170;28;20264;-85
2021/01/20 07:48:56;;;;;;;15.52;7.50;;;3.60;90.40;;;;;;5043818;28;20221;-85
2021/01/20 07:51:23;;;;;;;16.80;7.60;;;3.60;90.40;;;;;;5044909;28;20186;-85
2021/01/20 07:54:00;;;;;;;12.68;7.60;;;3.60;90.40;;;;;;5045204;28;20177;-85
2021/01/20 07:56:27;;;;;;;14.07;8.43;;;3.60;90.50;;;;;;5045325;28;20259;-85
2021/01/20 07:58:53;;;;;;;15.40;9.05;;;3.60;90.30;;;;;;5047169;28;20208;-86
2021/01/20 08:01:29;;;;;;;16.35;8.38;;;3.70;90.10;;;;;;5047297;28;20170;-84
2021/01/20 08:03:57;;;;;;;11.80;7.10;;;3.70;89.80;;;;;;5047726;28;20169;-84
2021/01/20 08:06:40;;;;;;;15.25;7.10;;;3.70;90.10;;;;;;5047771;28;20626;-87
2021/01/20 08:09:06;;;;;;;20.65;6.88;;;3.80;89.60;;;;;;5050696;28;20269;-85
2021/01/20 08:11:32;;;;;;;12.40;7.30;;;3.80;89.50;;;;;;5048794;28;20663;-84
2021/01/20 08:14:00;;;;;;;13.38;6.00;;;3.80;89.20;;;;;;5048203;28;20479;-88
2021/01/20 08:16:34;;;;;;;18.65;7.57;;;3.90;88.80;;;;;;5048574;28;20265;-87
2021/01/20 08:19:00;;;;;;;13.25;6.55;;;3.90;88.70;;;;;;5048085;28;20221;-86
2021/01/20 08:21:27;;;;;;;12.23;6.40;;;3.90;88.40;;;;;;5047731;28;20174;-87
2021/01/20 08:24:00;;;;;;;12.45;6.28;;;3.90;88.50;;;;;;5047926;28;20161;-86
2021/01/20 08:26:30;;;;;;;15.80;7.45;;;3.90;88.40;;;;;;5049673;28;20743;-86
2021/01/20 08:29:05;;;;;;;12.90;6.63;;;3.90;88.50;;;;;;5048154;28;20750;-85
2021/01/20 08:31:32;;;;;;;17.10;7.10;;;4.00;88.40;;;;;;5047660;28;20164;-85
2021/01/20 08:34:22;;;;;;;14.52;6.72;;;4.00;88.40;;;;;;5048158;28;20177;-86
2021/01/20 08:36:55;;;;;;;14.07;6.75;;;4.10;88.80;;;;;;5047908;28;20192;-86
2021/01/20 08:39:21;;;;;;;20.88;6.65;;;4.10;88.10;;;;;;5048067;28;20209;-85
2021/01/20 08:42:17;;;;;;;13.75;6.70;;;4.10;88.10;;;;;;5048522;28;20174;-86
2021/01/20 08:45:09;;;;;;;10.63;6.40;;;4.20;88.40;;;;;;5048010;28;20170;-88
2021/01/20 08:48:00;;;;;;;12.52;6.63;;;4.20;87.70;;;;;;5048496;28;20193;-86
2021/01/20 08:50:46;;;;;;;12.77;6.85;;;4.30;87.40;;;;;;5048305;28;20185;-86
2021/01/20 08:53:24;;;;;;;17.67;7.22;;;4.30;87.60;;;;;;5048238;28;20200;-85
2021/01/20 08:55:52;;;;;;;19.00;7.80;;;4.30;87.60;;;;;;5045156;28;20685;-86
2021/01/20 08:58:27;;;;;;;22.80;8.85;;;4.40;87.70;;;;;;5043711;28;20720;-85
2021/01/20 09:00:54;;;;;;;25.92;9.68;;;4.40;87.00;;;;;;5045075;28;20169;-85
2021/01/20 09:03:29;;;;;;;19.17;7.53;;;4.50;87.40;;;;;;5046171;28;20181;-85
2021/01/20 09:05:56;;;;;;;18.98;7.38;;;4.60;86.90;;;;;;5046779;28;20177;-85
2021/01/20 09:08:23;;;;;;;18.20;7.25;;;4.60;87.00;;;;;;5046701;28;20194;-86
2021/01/20 09:10:50;;;;;;;12.70;6.32;;;4.70;86.40;;;;;;5046826;28;20184;-85
2021/01/20 09:13:17;;;;;;;10.70;6.47;;;4.70;85.30;;;;;;5046239;28;20174;-85
2021/01/20 09:15:51;;;;;;;12.82;5.53;;;4.80;85.20;;;;;;5047232;28;20194;-85
2021/01/20 09:18:17;;;;;;;9.77;5.28;;;4.80;85.10;;;;;;5046427;28;20206;-85
2021/01/20 09:20:43;;;;;;;14.75;5.90;;;4.90;83.80;;;;;;5045953;28;20176;-86
2021/01/20 09:23:09;;;;;;;12.73;5.90;;;5.00;83.70;;;;;;5045737;28;20641;-86
2021/01/20 09:25:36;;;;;;;15.03;6.00;;;5.00;83.70;;;;;;5045866;28;20174;-86
2021/01/20 09:28:02;;;;;;;13.05;5.35;;;5.00;83.40;;;;;;5046382;28;20437;-85
2021/01/20 09:30:28;;;;;;;13.98;5.80;;;5.10;83.50;;;;;;5046845;28;20213;-85
2021/01/20 09:32:54;;;;;;;10.50;5.40;;;5.10;83.50;;;;;;5046117;28;20177;-86
2021/01/20 09:35:21;;;;;;;10.85;5.65;;;5.10;83.00;;;;;;5046266;28;20225;-86
2021/01/20 09:37:49;;;;;;;10.70;5.70;;;5.20;83.00;;;;;;5046055;28;20213;-86
2021/01/20 09:40:17;;;;;;;16.48;5.53;;;5.20;82.60;;;;;;5061616;23;20228;-84
2021/01/20 09:42:47;;;;;;;8.95;4.97;;;5.30;81.90;;;;;;5053534;28;20176;-84
2021/01/20 09:45:14;;;;;;;7.22;4.47;;;5.40;82.40;;;;;;5053361;28;20180;-84
2021/01/20 09:47:43;;;;;;;10.57;6.32;;;5.40;82.10;;;;;;5052873;28;20675;-84
2021/01/20 09:50:10;;;;;;;12.65;6.55;;;5.40;82.10;;;;;;5055534;28;20697;-84
2021/01/20 09:52:37;;;;;;;13.15;4.95;;;5.40;81.60;;;;;;5053871;28;20173;-84
2021/01/20 09:55:04;;;;;;;16.33;6.15;;;5.40;81.90;;;;;;5054278;28;20177;-84
2021/01/20 09:57:29;;;;;;;13.88;6.90;;;5.50;82.40;;;;;;5054610;28;20204;-84
2021/01/20 09:59:55;;;;;;;19.53;7.50;;;5.50;81.60;;;;;;5053836;28;20188;-84
2021/01/20 10:02:21;;;;;;;20.97;8.00;;;5.60;82.30;;;;;;5054228;28;20169;-84
2021/01/20 10:04:47;;;;;;;12.37;7.40;;;5.70;82.10;;;;;;5053712;28;20267;-83
2021/01/20 10:07:13;;;;;;;18.70;7.83;;;5.70;82.10;;;;;;5053564;28;20501;-84
2021/01/20 10:09:39;;;;;;;14.52;7.68;;;5.70;81.60;;;;;;5054029;28;20408;-84
2021/01/20 10:12:07;;;;;;;24.55;7.50;;;5.80;81.90;;;;;;5052316;28;20621;-85
2021/01/20 10:14:32;;;;;;;26.00;7.88;;;5.80;81.60;;;;;;5053748;28;20242;-84
2021/01/20 10:16:58;;;;;;;17.00;7.57;;;5.90;81.20;;;;;;5053602;28;20621;-84
2021/01/20 10:19:24;;;;;;;14.37;7.13;;;5.90;80.60;;;;;;5053432;28;20200;-84
2021/01/20 10:21:50;;;;;;;17.77;7.53;;;6.00;81.20;;;;;;5053588;28;20465;-84
2021/01/20 10:24:16;;;;;;;22.70;8.30;;;6.10;81.30;;;;;;5053249;28;20408;-84
2021/01/20 10:26:41;;;;;;;17.13;8.40;;;6.20;81.00;;;;;;5053943;28;20181;-84
2021/01/20 10:29:08;;;;;;;21.07;6.33;;;6.20;80.60;;;;;;5053095;28;20439;-84
2021/01/20 10:31:39;;;;;;;21.92;7.75;;;6.30;79.90;;;;;;5052883;28;20415;-84
2021/01/20 10:34:06;;;;;;;18.42;6.68;;;6.30;79.80;;;;;;5052828;28;20699;-84
2021/01/20 10:36:32;;;;;;;13.40;6.05;;;6.40;80.30;;;;;;5053046;28;20433;-84
2021/01/20 10:38:58;;;;;;;13.30;5.95;;;6.50;80.30;;;;;;5053242;28;20209;-84
2021/01/20 10:41:25;;;;;;;13.00;5.97;;;6.50;78.80;;;;;;5053165;28;20177;-85
2021/01/20 10:43:52;;;;;;;17.15;6.20;;;6.60;78.80;;;;;;5052936;28;20403;-84
2021/01/20 10:46:19;;;;;;;12.88;6.18;;;6.50;77.70;;;;;;5053830;28;20176;-84
2021/01/20 10:48:45;;;;;;;14.30;5.28;;;6.50;77.70;;;;;;5053320;28;20249;-84
2021/01/20 10:51:12;;;;;;;16.63;5.75;;;6.60;78.00;;;;;;5053168;28;20173;-85
2021/01/20 10:53:38;;;;;;;18.35;6.10;;;6.70;77.30;;;;;;5052798;28;20179;-84
2021/01/20 10:56:08;;;;;;;10.63;5.78;;;6.70;77.40;;;;;;5053524;28;20563;-85
2021/01/20 10:58:34;;;;;;;20.73;6.55;;;6.70;77.70;;;;;;5053824;28;20632;-84
2021/01/20 11:01:01;;;;;;;15.18;6.18;;;6.80;78.50;;;;;;5053322;28;20272;-84
2021/01/20 11:03:27;;;;;;;17.50;5.55;;;6.90;77.60;;;;;;5054857;28;20173;-84
2021/01/20 11:05:53;;;;;;;11.20;6.47;;;6.90;77.00;;;;;;5054274;28;20173;-84
2021/01/20 11:08:20;;;;;;;13.38;5.47;;;7.00;76.60;;;;;;5053532;28;20407;-81
2021/01/20 11:10:46;;;;;;;14.57;6.43;;;7.00;76.90;;;;;;5052997;28;20180;-84
2021/01/20 11:13:12;;;;;;;11.75;6.68;;;7.10;75.80;;;;;;5052747;28;20240;-81
2021/01/20 11:15:39;;;;;;;14.20;7.30;;;7.20;76.30;;;;;;5055003;28;20190;-85
2021/01/20 11:18:05;;;;;;;19.23;7.50;;;7.20;75.80;;;;;;5052288;28;20643;-84
2021/01/20 11:20:32;;;;;;;13.02;7.55;;;7.20;76.40;;;;;;5052539;28;20576;-85
2021/01/20 11:22:58;;;;;;;12.43;6.45;;;7.30;75.80;;;;;;5061866;28;20169;-83
2021/01/20 11:25:24;;;;;;;12.68;5.97;;;7.40;75.20;;;;;;5065070;28;20491;-82
2021/01/20 11:27:50;;;;;;;15.57;7.53;;;7.40;74.90;;;;;;5064447;28;20208;-80
2021/01/20 11:30:19;;;;;;;19.87;6.17;;;7.40;74.90;;;;;;5061239;28;20279;-82
2021/01/20 11:32:45;;;;;;;10.60;5.75;;;7.40;74.80;;;;;;5057357;28;20415;-82
2021/01/20 11:35:12;;;;;;;19.67;7.40;;;7.40;75.20;;;;;;5056747;28;20169;-83
2021/01/20 11:37:39;;;;;;;22.83;9.98;;;7.40;75.10;;;;;;5057888;28;20611;-82
2021/01/20 11:40:06;;;;;;;18.83;8.40;;;7.40;75.60;;;;;;5057373;28;20200;-82
2021/01/20 11:42:33;;;;;;;24.75;8.73;;;7.50;75.20;;;;;;5057773;28;20170;-82
2021/01/20 11:44:59;;;;;;;18.65;8.32;;;7.50;75.20;;;;;;5060303;28;20173;-84
2021/01/20 11:47:25;;;;;;;20.77;7.95;;;7.50;75.30;;;;;;5057737;28;20197;-84
2021/01/20 11:49:54;;;;;;;17.00;8.53;;;7.50;75.50;;;;;;5056146;28;20184;-83
2021/01/20 11:52:20;;;;;;;18.60;6.45;;;7.60;75.80;;;;;;5055661;28;20426;-84
2021/01/20 11:54:46;;;;;;;14.52;7.25;;;7.60;75.50;;;;;;5055404;28;20219;-84
2021/01/20 11:57:12;;;;;;;25.33;8.70;;;7.70;75.50;;;;;;5055619;28;20197;-84
2021/01/20 11:59:38;;;;;;;17.27;7.10;;;7.70;74.80;;;;;;5055369;28;20229;-84
2021/01/20 12:02:04;;;;;;;25.70;8.90;;;7.70;75.10;;;;;;5055374;28;20442;-84
2021/01/20 12:04:30;;;;;;;13.88;6.97;;;7.80;74.50;;;;;;5055472;28;20235;-84
2021/01/20 12:06:56;;;;;;;19.27;8.15;;;7.80;73.90;;;;;;5055033;28;20633;-84
2021/01/20 12:09:22;;;;;;;14.13;6.53;;;7.80;73.70;;;;;;5055093;28;20180;-84
2021/01/20 12:11:48;;;;;;;15.13;8.07;;;7.80;74.10;;;;;;5054928;28;20407;-84
2021/01/20 12:14:14;;;;;;;20.00;8.10;;;7.80;74.10;;;;;;5055206;28;20443;-84
2021/01/20 12:16:41;;;;;;;16.83;7.97;;;7.80;74.10;;;;;;5054965;28;20178;-84
2021/01/20 12:19:07;;;;;;;19.88;8.68;;;7.80;74.20;;;;;;5054816;28;20633;-84
2021/01/20 12:21:38;;;;;;;20.80;8.45;;;7.90;74.40;;;;;;5055472;28;20177;-84
2021/01/20 12:24:04;;;;;;;19.70;8.35;;;7.90;73.80;;;;;;5056578;28;20248;-82
2021/01/20 12:26:30;;;;;;;21.75;8.25;;;7.90;75.20;;;;;;5055109;28;20177;-85
2021/01/20 12:28:56;;;;;;;21.13;8.07;;;7.90;75.30;;;;;;5054862;28;20695;-85
2021/01/20 12:31:22;;;;;;;20.43;8.60;;;8.00;74.80;;;;;;5054559;28;20834;-85
2021/01/20 12:33:47;;;;;;;33.33;9.93;;;8.00;74.50;;;;;;5054326;28;20208;-84
2021/01/20 12:36:13;;;;;;;21.93;9.60;;;8.00;74.40;;;;;;5054886;28;20184;-85
2021/01/20 12:38:39;;;;;;;24.63;9.83;;;8.00;74.50;;;;;;5055187;28;20208;-85
2021/01/20 12:41:05;;;;;;;28.77;10.10;;;8.00;73.90;;;;;;5054976;28;20942;-85
2021/01/20 12:43:30;;;;;;;23.53;8.97;;;8.00;74.20;;;;;;5055345;28;20451;-85
2021/01/20 12:45:56;;;;;;;34.83;9.97;;;8.10;74.80;;;;;;5055140;28;20872;-85
2021/01/20 12:48:22;;;;;;;21.33;9.10;;;8.10;74.10;;;;;;5055679;28;20343;-82
2021/01/20 12:50:48;;;;;;;17.85;8.80;;;8.20;74.40;;;;;;5059065;28;20173;-85
2021/01/20 12:53:14;;;;;;;28.80;10.60;;;8.30;74.20;;;;;;5058461;28;20195;-82
2021/01/20 12:55:40;;;;;;;17.20;9.15;;;8.30;73.50;;;;;;5056055;28;20411;-81
2021/01/20 12:58:06;;;;;;;26.07;8.70;;;8.30;73.50;;;;;;5059017;28;20223;-80